createdAt,value
2017-11-25T00:01:07.938Z,32.60
2017-11-25T00:03:41.245Z,31.13
2017-11-25T00:06:13.762Z,28.43
2017-11-25T00:08:47.059Z,26.80
2017-11-25T00:11:19.570Z,27.13
2017-11-25T00:13:52.111Z,24.90
2017-11-25T00:16:24.634Z,24.07
2017-11-25T00:18:57.182Z,27.50
2017-11-25T00:21:30.469Z,25.53
2017-11-25T00:24:03.914Z,27.20
2017-11-25T00:26:36.451Z,25.63
2017-11-25T00:29:08.995Z,24.90
2017-11-25T00:31:41.509Z,22.63
2017-11-25T00:34:14.042Z,28.83
2017-11-25T00:36:47.360Z,28.43
2017-11-25T00:39:20.681Z,26.83
2017-11-25T00:41:53.206Z,28.37
2017-11-25T00:44:25.748Z,34.23
2017-11-25T00:46:58.286Z,21.70
2017-11-25T00:49:31.622Z,25.07
2017-11-25T00:52:04.162Z,27.80
2017-11-25T00:54:36.974Z,23.63
2017-11-25T00:57:09.570Z,44.23
2017-11-25T00:59:42.111Z,37.53
2017-11-25T01:02:14.635Z,34.80
2017-11-25T01:04:47.177Z,27.90
2017-11-25T01:07:19.693Z,31.17
2017-11-25T01:09:52.227Z,23.47
2017-11-25T01:12:25.523Z,22.50
2017-11-25T01:14:58.067Z,26.70
2017-11-25T01:17:30.845Z,22.90
2017-11-25T01:20:03.614Z,27.70
2017-11-25T01:22:36.182Z,22.83
2017-11-25T01:25:08.786Z,24.23
2017-11-25T01:27:41.386Z,21.63
2017-11-25T01:30:13.927Z,28.53
2017-11-25T01:32:46.443Z,23.03
2017-11-25T01:35:18.983Z,25.43
2017-11-25T01:37:52.303Z,29.77
2017-11-25T01:40:25.602Z,19.57
2017-11-25T01:42:58.119Z,31.57
2017-11-25T01:45:31.426Z,35.00
2017-11-25T01:48:03.937Z,29.23
2017-11-25T01:50:37.233Z,25.60
2017-11-25T01:53:09.767Z,25.90
2017-11-25T01:55:43.813Z,21.80
2017-11-25T01:58:16.613Z,24.07
2017-11-25T02:00:49.170Z,28.93
2017-11-25T02:03:21.685Z,26.97
2017-11-25T02:05:54.219Z,24.33
2017-11-25T02:08:26.738Z,27.30
2017-11-25T02:10:59.278Z,37.93
2017-11-25T02:13:31.858Z,22.77
2017-11-25T02:16:04.400Z,22.73
2017-11-25T02:18:36.916Z,31.47
2017-11-25T02:21:10.226Z,36.13
2017-11-25T02:23:42.737Z,23.80
2017-11-25T02:26:16.045Z,16.77
2017-11-25T02:28:48.567Z,21.43
2017-11-25T02:31:21.916Z,21.43
2017-11-25T02:33:54.451Z,17.83
2017-11-25T02:36:26.992Z,20.77
2017-11-25T02:39:00.291Z,23.30
2017-11-25T02:41:32.862Z,25.50
2017-11-25T02:44:05.385Z,18.40
2017-11-25T02:46:38.010Z,22.07
2017-11-25T02:49:11.308Z,28.43
2017-11-25T02:51:43.850Z,31.40
2017-11-25T02:54:16.391Z,32.77
2017-11-25T02:56:49.036Z,26.07
2017-11-25T02:59:22.333Z,28.30
2017-11-25T03:01:54.894Z,33.47
2017-11-25T03:04:27.418Z,20.37
2017-11-25T03:06:59.959Z,17.90
2017-11-25T03:09:34.044Z,19.17
2017-11-25T03:12:06.579Z,23.30
2017-11-25T03:14:39.099Z,31.90
2017-11-25T03:17:11.655Z,18.70
2017-11-25T03:19:44.202Z,21.90
2017-11-25T03:22:17.735Z,21.87
2017-11-25T03:24:51.023Z,21.23
2017-11-25T03:27:23.565Z,25.63
2017-11-25T03:29:56.851Z,26.13
2017-11-25T03:32:29.441Z,29.20
2017-11-25T03:35:01.966Z,23.53
2017-11-25T03:37:34.504Z,25.83
2017-11-25T03:40:07.043Z,25.60
2017-11-25T03:42:39.620Z,20.23
2017-11-25T03:45:12.227Z,23.83
2017-11-25T03:47:44.772Z,22.13
2017-11-25T03:50:17.292Z,21.30
2017-11-25T03:52:50.618Z,20.43
2017-11-25T03:55:23.146Z,23.50
2017-11-25T03:57:55.686Z,22.47
2017-11-25T04:00:28.210Z,32.40
2017-11-25T04:03:00.749Z,36.93
2017-11-25T04:05:33.583Z,15.80
2017-11-25T04:08:06.129Z,19.30
2017-11-25T04:10:39.412Z,38.07
2017-11-25T04:13:11.961Z,31.80
2017-11-25T04:15:44.505Z,26.53
2017-11-25T04:18:17.049Z,20.43
2017-11-25T04:20:49.586Z,39.27
2017-11-25T04:23:22.133Z,32.57
2017-11-25T04:25:54.660Z,33.83
2017-11-25T04:28:27.971Z,35.47
2017-11-25T04:31:00.490Z,27.53
2017-11-25T04:33:33.826Z,38.50
2017-11-25T04:36:06.349Z,38.97
2017-11-25T04:38:38.881Z,26.03
2017-11-25T04:41:11.413Z,24.17
2017-11-25T04:43:44.728Z,46.93
2017-11-25T04:46:18.025Z,29.77
2017-11-25T04:48:50.566Z,49.57
2017-11-25T04:51:23.091Z,26.77
2017-11-25T04:53:55.632Z,27.77
2017-11-25T04:56:28.930Z,28.60
2017-11-25T04:59:01.482Z,36.27
2017-11-25T05:01:34.009Z,52.37
2017-11-25T05:04:06.574Z,48.27
2017-11-25T05:06:39.859Z,35.93
2017-11-25T05:09:12.402Z,27.50
2017-11-25T05:11:45.682Z,36.10
2017-11-25T05:14:18.986Z,23.43
2017-11-25T05:16:51.507Z,42.00
2017-11-25T05:19:24.107Z,42.47
2017-11-25T05:21:56.622Z,24.50
2017-11-25T05:24:29.178Z,33.57
2017-11-25T05:27:01.713Z,32.83
2017-11-25T05:29:34.282Z,43.97
2017-11-25T05:32:07.163Z,46.73
2017-11-25T05:34:40.492Z,38.53
2017-11-25T05:37:13.123Z,30.93
2017-11-25T05:39:45.670Z,45.60
2017-11-25T05:42:18.204Z,51.63
2017-11-25T05:44:51.520Z,50.83
2017-11-25T05:47:24.850Z,52.53
2017-11-25T05:49:57.398Z,49.50
2017-11-25T05:52:29.918Z,40.83
2017-11-25T05:55:03.122Z,36.57
2017-11-25T05:57:35.650Z,31.13
2017-11-25T06:00:08.959Z,29.97
2017-11-25T06:02:41.483Z,28.97
2017-11-25T06:05:14.802Z,30.97
2017-11-25T06:07:48.095Z,19.27
2017-11-25T06:10:20.636Z,22.60
2017-11-25T06:12:53.164Z,20.07
2017-11-25T06:15:25.706Z,25.50
2017-11-25T06:17:58.218Z,27.87
2017-11-25T06:20:31.523Z,32.50
2017-11-25T06:23:04.047Z,30.60
2017-11-25T06:25:37.368Z,33.50
2017-11-25T06:28:10.676Z,35.80
2017-11-25T06:30:43.987Z,28.27
2017-11-25T06:33:16.517Z,29.20
2017-11-25T06:35:49.049Z,29.53
2017-11-25T06:38:21.558Z,25.97
2017-11-25T06:40:54.096Z,28.27
2017-11-25T06:43:27.138Z,26.10
2017-11-25T06:45:59.675Z,30.70
2017-11-25T06:48:32.954Z,28.27
2017-11-25T06:51:06.926Z,28.10
2017-11-25T06:53:39.485Z,31.53
2017-11-25T06:56:12.107Z,29.03
2017-11-25T06:58:44.634Z,28.90
2017-11-25T07:01:17.185Z,31.97
2017-11-25T07:03:50.465Z,29.23
2017-11-25T07:06:23.012Z,28.30
2017-11-25T07:08:55.970Z,28.50
2017-11-25T07:11:29.323Z,26.40
2017-11-25T07:14:01.850Z,26.73
2017-11-25T07:16:35.180Z,25.97
2017-11-25T07:19:08.501Z,27.47
2017-11-25T07:21:41.822Z,28.43
2017-11-25T07:24:14.538Z,26.80
2017-11-25T07:26:47.097Z,30.27
2017-11-25T07:29:19.626Z,30.27
2017-11-25T07:31:52.947Z,26.23
2017-11-25T07:34:25.564Z,24.90
2017-11-25T07:36:58.107Z,26.50
2017-11-25T07:39:30.622Z,26.30
2017-11-25T07:42:03.470Z,29.47
2017-11-25T07:44:36.751Z,26.73
2017-11-25T07:47:09.295Z,25.57
2017-11-25T07:49:41.810Z,23.50
2017-11-25T07:52:14.362Z,24.80
2017-11-25T07:54:46.882Z,25.67
2017-11-25T07:57:21.686Z,24.43
2017-11-25T07:59:54.967Z,28.37
2017-11-25T08:02:31.015Z,33.73
2017-11-25T08:05:03.551Z,24.37
2017-11-25T08:07:37.007Z,27.50
2017-11-25T08:10:10.648Z,28.07
2017-11-25T08:12:43.207Z,27.87
2017-11-25T08:15:16.489Z,25.47
2017-11-25T08:17:49.044Z,24.87
2017-11-25T08:20:21.590Z,21.50
2017-11-25T08:22:54.125Z,26.43
2017-11-25T08:25:27.415Z,29.60
2017-11-25T08:27:59.969Z,26.37
2017-11-25T08:30:32.538Z,25.53
2017-11-25T08:33:05.079Z,26.43
2017-11-25T08:35:37.599Z,23.73
2017-11-25T08:38:11.009Z,29.03
2017-11-25T08:40:43.535Z,29.03
2017-11-25T08:43:16.071Z,26.50
2017-11-25T08:45:49.380Z,27.37
2017-11-25T08:48:23.554Z,29.47
2017-11-25T08:50:56.073Z,27.13
2017-11-25T08:53:28.631Z,26.07
2017-11-25T08:56:01.975Z,28.00
2017-11-25T08:58:34.568Z,25.70
2017-11-25T09:01:07.138Z,25.87
2017-11-25T09:03:42.523Z,26.00
2017-11-25T09:06:15.811Z,25.37
2017-11-25T09:08:48.461Z,23.30
2017-11-25T09:11:21.741Z,21.33
2017-11-25T09:13:55.296Z,23.13
2017-11-25T09:16:28.594Z,26.27
2017-11-25T09:19:01.134Z,23.60
2017-11-25T09:21:34.542Z,23.83
2017-11-25T09:24:07.082Z,23.20
2017-11-25T09:26:39.699Z,22.07
2017-11-25T09:29:13.111Z,21.60
2017-11-25T09:31:45.635Z,22.40
2017-11-25T09:34:18.175Z,22.20
2017-11-25T09:36:51.496Z,20.27
2017-11-25T09:39:24.051Z,23.60
2017-11-25T09:41:56.582Z,17.90
2017-11-25T09:44:29.122Z,19.50
2017-11-25T09:47:01.714Z,21.63
2017-11-25T09:49:34.271Z,21.27
2017-11-25T09:52:06.793Z,19.13
2017-11-25T09:54:39.359Z,18.63
2017-11-25T09:57:11.879Z,19.97
2017-11-25T09:59:44.411Z,18.37
2017-11-25T10:02:16.984Z,18.77
2017-11-25T10:04:49.842Z,18.37
2017-11-25T10:07:22.369Z,16.43
2017-11-25T10:09:55.017Z,17.20
2017-11-25T10:12:28.353Z,18.57
2017-11-25T10:15:01.719Z,17.47
2017-11-25T10:17:34.296Z,17.23
2017-11-25T10:20:06.847Z,15.83
2017-11-25T10:22:39.383Z,17.40
2017-11-25T10:25:12.729Z,15.27
2017-11-25T10:27:46.181Z,15.33
2017-11-25T10:30:18.782Z,16.20
2017-11-25T10:32:51.508Z,16.70
2017-11-25T10:35:24.111Z,15.43
2017-11-25T10:37:56.658Z,14.87
2017-11-25T10:40:29.242Z,14.97
2017-11-25T10:43:02.583Z,12.60
2017-11-25T10:45:35.135Z,13.27
2017-11-25T10:48:07.650Z,11.40
2017-11-25T10:50:40.191Z,11.63
2017-11-25T10:53:12.804Z,10.60
2017-11-25T10:55:45.344Z,11.30
2017-11-25T10:58:17.864Z,10.73
2017-11-25T11:00:50.443Z,11.10
2017-11-25T11:03:23.019Z,11.03
2017-11-25T11:05:57.130Z,9.83
2017-11-25T11:08:29.702Z,9.20
2017-11-25T11:11:02.249Z,10.17
2017-11-25T11:13:34.788Z,10.00
2017-11-25T11:16:07.332Z,9.03
2017-11-25T11:18:40.649Z,8.70
2017-11-25T11:21:13.965Z,9.00
2017-11-25T11:23:47.249Z,9.37
2017-11-25T11:26:19.786Z,8.27
2017-11-25T11:28:53.170Z,8.07
2017-11-25T11:31:25.704Z,7.63
2017-11-25T11:33:58.373Z,8.57
2017-11-25T11:36:30.906Z,7.67
2017-11-25T11:39:03.419Z,7.43
2017-11-25T11:41:36.715Z,6.60
2017-11-25T11:44:09.342Z,6.23
2017-11-25T11:46:41.951Z,5.13
2017-11-25T11:49:15.234Z,4.77
2017-11-25T11:51:47.766Z,4.70
2017-11-25T11:54:21.042Z,4.37
2017-11-25T11:56:53.591Z,4.83
2017-11-25T11:59:26.123Z,4.83
2017-11-25T12:01:58.660Z,4.20
2017-11-25T12:04:31.166Z,4.93
2017-11-25T12:07:03.694Z,5.13
2017-11-25T12:09:36.984Z,4.97
2017-11-25T12:12:09.537Z,5.50
2017-11-25T12:14:42.053Z,5.40
2017-11-25T12:17:14.579Z,5.37
2017-11-25T12:19:47.117Z,4.80
2017-11-25T12:22:19.682Z,5.03
2017-11-25T12:24:52.198Z,4.70
2017-11-25T12:27:24.745Z,4.90
2017-11-25T12:29:57.547Z,4.83
2017-11-25T12:32:30.904Z,4.50
2017-11-25T12:35:04.472Z,4.63
2017-11-25T12:37:37.954Z,4.60
2017-11-25T12:40:10.557Z,4.67
2017-11-25T12:42:43.099Z,4.87
2017-11-25T12:45:16.005Z,5.30
2017-11-25T12:47:48.615Z,4.73
2017-11-25T12:50:21.132Z,5.43
2017-11-25T12:52:54.463Z,4.70
2017-11-25T12:55:27.741Z,5.20
2017-11-25T12:58:00.267Z,4.90
2017-11-25T13:00:33.574Z,4.93
2017-11-25T13:03:06.106Z,5.20
2017-11-25T13:05:39.376Z,5.10
2017-11-25T13:08:11.912Z,5.20
2017-11-25T13:10:44.432Z,4.70
2017-11-25T13:13:17.750Z,5.33
2017-11-25T13:15:51.027Z,5.13
2017-11-25T13:18:23.562Z,5.27
2017-11-25T13:20:56.838Z,5.57
2017-11-25T13:23:29.395Z,6.37
2017-11-25T13:26:03.178Z,6.53
2017-11-25T13:28:35.702Z,6.57
2017-11-25T13:31:08.216Z,6.80
2017-11-25T13:33:41.522Z,6.47
2017-11-25T13:36:14.027Z,5.93
2017-11-25T13:38:46.557Z,6.90
2017-11-25T13:41:19.437Z,6.93
2017-11-25T13:43:51.966Z,6.73
2017-11-25T13:46:24.477Z,6.10
2017-11-25T13:48:57.022Z,6.40
2017-11-25T13:51:29.534Z,6.00
2017-11-25T13:54:02.071Z,6.67
2017-11-25T13:56:34.587Z,6.70
2017-11-25T13:59:07.173Z,7.30
2017-11-25T14:01:39.714Z,7.67
2017-11-25T14:04:12.253Z,6.90
2017-11-25T14:06:44.761Z,6.73
2017-11-25T14:09:17.289Z,7.30
2017-11-25T14:11:49.808Z,6.53
2017-11-25T14:14:22.379Z,7.03
2017-11-25T14:16:55.650Z,7.00
2017-11-25T14:19:28.178Z,6.80
2017-11-25T14:22:00.690Z,7.60
2017-11-25T14:24:34.281Z,9.07
2017-11-25T14:27:06.799Z,9.00
2017-11-25T14:29:39.354Z,9.03
2017-11-25T14:32:11.875Z,9.50
2017-11-25T14:34:45.187Z,10.07
2017-11-25T14:37:17.715Z,9.43
2017-11-25T14:39:50.253Z,9.93
2017-11-25T14:42:23.538Z,9.00
2017-11-25T14:44:56.066Z,9.90
2017-11-25T14:47:28.630Z,9.53
2017-11-25T14:50:01.171Z,10.30
2017-11-25T14:52:34.446Z,11.27
2017-11-25T14:55:06.982Z,10.40
2017-11-25T14:57:40.292Z,9.70
2017-11-25T15:00:13.038Z,10.33
2017-11-25T15:02:45.593Z,11.20
2017-11-25T15:05:18.126Z,10.10
2017-11-25T15:07:51.403Z,9.20
2017-11-25T15:10:23.946Z,10.63
2017-11-25T15:12:56.450Z,9.03
2017-11-25T15:15:29.785Z,9.47
2017-11-25T15:18:02.290Z,9.97
2017-11-25T15:20:35.586Z,10.47
2017-11-25T15:23:08.875Z,11.37
2017-11-25T15:25:41.413Z,17.47
2017-11-25T15:28:14.697Z,13.97
2017-11-25T15:30:47.255Z,16.37
2017-11-25T15:33:19.764Z,18.20
2017-11-25T15:35:52.303Z,16.40
2017-11-25T15:38:24.830Z,15.27
2017-11-25T15:40:57.367Z,13.60
2017-11-25T15:43:29.890Z,13.57
2017-11-25T15:46:03.155Z,12.13
2017-11-25T15:48:35.687Z,11.50
2017-11-25T15:51:08.250Z,11.53
2017-11-25T15:53:40.773Z,11.33
2017-11-25T15:56:14.066Z,12.43
2017-11-25T15:58:46.586Z,10.33
2017-11-25T16:01:19.888Z,13.73
2017-11-25T16:03:52.407Z,13.23
2017-11-25T16:06:24.950Z,12.80
2017-11-25T16:08:57.462Z,13.17
2017-11-25T16:11:30.013Z,13.10
2017-11-25T16:14:03.303Z,11.20
2017-11-25T16:16:35.842Z,11.90
2017-11-25T16:19:09.121Z,11.77
2017-11-25T16:21:41.652Z,11.10
2017-11-25T16:24:14.180Z,12.60
2017-11-25T16:26:46.715Z,12.77
2017-11-25T16:29:19.229Z,11.57
2017-11-25T16:31:51.766Z,11.70
2017-11-25T16:34:25.040Z,11.50
2017-11-25T16:36:57.579Z,11.27
2017-11-25T16:39:30.094Z,11.63
2017-11-25T16:42:03.406Z,12.67
2017-11-25T16:44:36.687Z,12.23
2017-11-25T16:47:09.226Z,13.33
2017-11-25T16:49:42.510Z,14.97
2017-11-25T16:52:15.044Z,13.47
2017-11-25T16:54:47.599Z,15.93
2017-11-25T16:57:20.919Z,15.07
2017-11-25T16:59:53.451Z,17.47
2017-11-25T17:02:26.810Z,18.77
2017-11-25T17:04:59.322Z,17.90
2017-11-25T17:07:31.883Z,16.20
2017-11-25T17:10:04.402Z,14.87
2017-11-25T17:12:37.702Z,18.37
2017-11-25T17:15:10.222Z,16.80
2017-11-25T17:17:43.543Z,15.17
2017-11-25T17:20:16.826Z,16.93
2017-11-25T17:22:49.364Z,16.10
2017-11-25T17:25:22.647Z,18.57
2017-11-25T17:27:55.201Z,17.30
2017-11-25T17:30:27.728Z,17.43
2017-11-25T17:33:00.265Z,17.20
2017-11-25T17:35:32.835Z,17.97
2017-11-25T17:38:05.379Z,17.87
2017-11-25T17:40:37.911Z,18.57
2017-11-25T17:43:10.449Z,18.93
2017-11-25T17:45:42.965Z,18.83
2017-11-25T17:48:15.510Z,20.37
2017-11-25T17:50:48.795Z,16.97
2017-11-25T17:53:21.357Z,19.13
2017-11-25T17:55:54.199Z,19.73
2017-11-25T17:58:26.775Z,16.90
2017-11-25T18:00:59.352Z,16.07
2017-11-25T18:03:31.920Z,18.93
2017-11-25T18:06:04.435Z,18.23
2017-11-25T18:08:37.730Z,17.77
2017-11-25T18:11:10.254Z,17.90
2017-11-25T18:13:42.786Z,18.57
2017-11-25T18:16:15.309Z,16.20
2017-11-25T18:18:47.859Z,15.93
2017-11-25T18:21:21.157Z,16.60
2017-11-25T18:23:53.694Z,15.90
2017-11-25T18:26:26.213Z,15.77
2017-11-25T18:28:58.750Z,17.90
2017-11-25T18:31:31.265Z,17.83
2017-11-25T18:34:03.806Z,17.33
2017-11-25T18:36:36.333Z,18.17
2017-11-25T18:39:08.879Z,17.10
2017-11-25T18:41:41.392Z,15.23
2017-11-25T18:44:13.928Z,16.87
2017-11-25T18:46:46.446Z,15.67
2017-11-25T18:49:19.019Z,17.73
2017-11-25T18:51:51.533Z,18.13
2017-11-25T18:54:24.095Z,18.47
2017-11-25T18:56:56.614Z,18.17
2017-11-25T18:59:29.926Z,17.43
2017-11-25T19:02:02.448Z,16.13
2017-11-25T19:04:34.984Z,17.17
2017-11-25T19:07:07.498Z,16.20
2017-11-25T19:09:40.048Z,16.70
2017-11-25T19:12:12.579Z,15.33
2017-11-25T19:14:45.122Z,16.13
2017-11-25T19:17:17.639Z,16.80
2017-11-25T19:19:51.136Z,17.27
2017-11-25T19:22:24.965Z,17.03
2017-11-25T19:24:58.222Z,16.73
2017-11-25T19:27:31.109Z,17.53
2017-11-25T19:30:04.470Z,17.83
2017-11-25T19:32:37.351Z,17.53
2017-11-25T19:35:10.348Z,15.63
2017-11-25T19:37:43.882Z,17.67
2017-11-25T19:40:16.455Z,17.17
2017-11-25T19:42:49.372Z,16.87
2017-11-25T19:45:23.052Z,17.20
2017-11-25T19:47:55.910Z,18.07
2017-11-25T19:50:28.854Z,16.03
2017-11-25T19:53:01.827Z,16.63
2017-11-25T19:55:35.959Z,16.50
2017-11-25T19:58:09.692Z,18.03
2017-11-25T20:00:42.784Z,16.33
2017-11-25T20:03:15.727Z,17.77
2017-11-25T20:05:48.794Z,16.43
2017-11-25T20:08:21.700Z,16.80
2017-11-25T20:10:54.606Z,17.60
2017-11-25T20:13:27.548Z,15.47
2017-11-25T20:16:00.421Z,17.00
2017-11-25T20:18:33.418Z,18.27
2017-11-25T20:21:06.580Z,18.07
2017-11-25T20:23:40.354Z,17.03
2017-11-25T20:26:14.928Z,17.13
2017-11-25T20:28:47.925Z,15.57
2017-11-25T20:31:21.642Z,17.70
2017-11-25T20:33:55.826Z,16.00
2017-11-25T20:36:28.747Z,17.70
2017-11-25T20:39:01.803Z,16.30
2017-11-25T20:41:34.910Z,17.37
2017-11-25T20:44:07.651Z,17.27
2017-11-25T20:46:40.192Z,15.80
2017-11-25T20:49:12.710Z,15.97
2017-11-25T20:51:45.361Z,16.53
2017-11-25T20:54:17.878Z,16.97
2017-11-25T20:56:51.215Z,16.57
2017-11-25T20:59:24.831Z,17.07
2017-11-25T21:01:58.133Z,17.33
2017-11-25T21:04:31.431Z,15.90
2017-11-25T21:07:04.000Z,16.17
2017-11-25T21:09:36.511Z,15.57
2017-11-25T21:12:09.118Z,16.90
2017-11-25T21:14:42.423Z,17.30
2017-11-25T21:17:14.978Z,16.97
2017-11-25T21:19:48.283Z,17.10
2017-11-25T21:22:20.823Z,15.10
2017-11-25T21:24:53.352Z,16.17
2017-11-25T21:27:25.905Z,18.17
2017-11-25T21:29:59.196Z,18.17
2017-11-25T21:32:31.735Z,18.40
2017-11-25T21:35:05.034Z,16.67
2017-11-25T21:37:37.571Z,16.90
2017-11-25T21:40:10.099Z,22.60
2017-11-25T21:42:42.638Z,20.83
2017-11-25T21:45:15.195Z,19.93
2017-11-25T21:47:47.738Z,20.20
2017-11-25T21:50:20.275Z,19.33
2017-11-25T21:52:52.819Z,18.33
2017-11-25T21:55:25.342Z,22.73
2017-11-25T21:57:57.907Z,20.87
2017-11-25T22:00:30.443Z,17.93
2017-11-25T22:03:03.078Z,19.17
2017-11-25T22:05:36.370Z,20.00
2017-11-25T22:08:08.936Z,20.63
2017-11-25T22:10:41.463Z,20.67
2017-11-25T22:13:14.071Z,19.40
2017-11-25T22:15:46.599Z,24.13
2017-11-25T22:18:19.908Z,18.80
2017-11-25T22:20:52.435Z,19.40
2017-11-25T22:23:25.750Z,19.20
2017-11-25T22:25:59.035Z,21.17
2017-11-25T22:28:31.594Z,18.90
2017-11-25T22:31:04.682Z,23.60
2017-11-25T22:33:38.003Z,24.83
2017-11-25T22:36:11.294Z,24.27
2017-11-25T22:38:43.854Z,25.33
2017-11-25T22:41:16.384Z,25.23
2017-11-25T22:43:48.931Z,26.20
2017-11-25T22:46:22.223Z,23.90
2017-11-25T22:48:54.762Z,27.93
2017-11-25T22:51:27.298Z,27.30
2017-11-25T22:53:59.838Z,25.00
2017-11-25T22:56:32.364Z,24.47
2017-11-25T22:59:04.928Z,28.83
2017-11-25T23:01:37.445Z,27.03
2017-11-25T23:04:09.983Z,24.97
2017-11-25T23:06:42.501Z,23.97
2017-11-25T23:09:15.050Z,25.13
2017-11-25T23:11:47.590Z,24.20
2017-11-25T23:14:20.147Z,21.40
2017-11-25T23:16:52.669Z,21.70
2017-11-25T23:19:25.988Z,24.13
2017-11-25T23:21:59.278Z,22.43
2017-11-25T23:24:31.810Z,22.07
2017-11-25T23:27:05.103Z,23.93
2017-11-25T23:29:37.648Z,20.97
2017-11-25T23:32:10.182Z,21.50
2017-11-25T23:34:42.749Z,20.17
2017-11-25T23:37:15.316Z,20.23
2017-11-25T23:39:47.863Z,20.07
2017-11-25T23:42:20.387Z,21.60
2017-11-25T23:44:52.946Z,20.53
2017-11-25T23:47:26.244Z,22.80
2017-11-25T23:49:58.794Z,22.53
2017-11-25T23:52:31.328Z,21.70
2017-11-25T23:55:03.871Z,23.80
2017-11-25T23:57:37.167Z,25.53
